Alfred, New York
Current Conditions -  °F | °C
As of 2:56 AM on Sunday 26 Oct 2014 (Local Time) from KELZ Reporting Station
Scattered Clouds Scattered Clouds  
Wind Chill: 41°   Ceiling: Unl
Heat Index: 46°   Visibility: 10mi
Dew Point: 36°   Wind: 12mph
Humidity: 68%   Direction: 310°NW
Pressure: 29.68"   Gusts: NA
Location:  42.25°N, 77.79°W
Report Text: KELZ 260656Z AUTO 31010KT 10SM SCT029 08/02 A2968 RMK AO2 SLP053 T00780022
Loading
Personal Weather Stations






























Interactive Weather Map
Tropical Storm Tracking
New forecast layout! Learn more

10-Day Weather Forecast

Advertisements
Track Severe Weather on mobile